Time;durP1;ratioP1;P1;durP2;ratioP2;P2;SDS_P1;SDS_P2;PMS_P1;PMS_P2;Temp;Humidity;BMP_temperature;BMP_pressure;BME280_temperature;BME280_humidity;BME280_pressure;Samples;Min_cycle;Max_cycle;Signal;HPM_P1;HPM_P2
2024/04/15 00:01:07;;;;;;;0.30;0.30;;;14.70;79.70;16.50;100274.00;;;;5403643;26;20617;-56
2024/04/15 00:03:36;;;;;;;0.30;0.30;;;14.70;79.70;16.50;100264.00;;;;5397132;26;20237;-57
2024/04/15 00:06:06;;;;;;;0.40;0.40;;;14.70;80.20;16.50;100260.00;;;;5403381;26;20718;-57
2024/04/15 00:08:32;;;;;;;0.40;0.40;;;14.60;79.80;16.50;100259.00;;;;5400489;26;20497;-57
2024/04/15 00:11:04;;;;;;;0.40;0.40;;;14.60;80.00;16.50;100252.00;;;;5405359;26;20650;-62
2024/04/15 00:13:31;;;;;;;0.40;0.40;;;14.60;80.80;16.50;100247.00;;;;5403954;26;20726;-63
2024/04/15 00:16:00;;;;;;;0.35;0.35;;;14.60;80.20;16.50;100236.00;;;;5401442;26;20322;-63
2024/04/15 00:18:27;;;;;;;0.43;0.43;;;14.50;80.30;16.40;100216.00;;;;5402221;26;21121;-63
2024/04/15 00:21:02;;;;;;;0.40;0.40;;;14.50;80.40;16.40;100229.00;;;;5403915;26;20245;-57
2024/04/15 00:23:29;;;;;;;0.40;0.40;;;14.50;81.50;16.40;100218.00;;;;5398820;26;20797;-57
2024/04/15 00:25:58;;;;;;;0.50;0.50;;;14.50;80.60;16.40;100212.00;;;;5402839;26;20410;-58
2024/04/15 00:28:25;;;;;;;0.40;0.40;;;14.50;80.80;16.40;100198.00;;;;5400351;26;20221;-58
2024/04/15 00:30:54;;;;;;;0.40;0.40;;;14.50;80.90;16.40;100181.00;;;;5408867;26;20300;-57
2024/04/15 00:33:21;;;;;;;0.40;0.40;;;14.40;80.90;16.30;100191.00;;;;5402358;26;20356;-58
2024/04/15 00:35:52;;;;;;;0.40;0.40;;;14.40;81.00;16.30;100194.00;;;;5405112;26;20709;-57
2024/04/15 00:38:20;;;;;;;0.40;0.40;;;14.40;81.00;16.30;100191.00;;;;5401312;26;20267;-57
2024/04/15 00:40:50;;;;;;;0.40;0.40;;;14.40;81.50;16.20;100191.00;;;;5404321;26;20233;-57
2024/04/15 00:43:16;;;;;;;0.30;0.30;;;14.30;81.10;16.20;100189.00;;;;5403425;26;20283;-62
2024/04/15 00:45:45;;;;;;;0.40;0.40;;;14.30;81.10;16.20;100179.00;;;;5407224;26;20237;-63
2024/04/15 00:48:16;;;;;;;0.40;0.40;;;14.30;81.30;16.20;100174.00;;;;5398101;26;20283;-61
2024/04/15 00:50:49;;;;;;;0.30;0.30;;;14.30;81.70;16.20;100174.00;;;;5408986;26;20241;-62
2024/04/15 00:53:21;;;;;;;0.30;0.30;;;14.20;81.70;16.20;100176.00;;;;5401245;26;20280;-62
2024/04/15 00:55:54;;;;;;;0.40;0.40;;;14.20;81.50;16.20;100172.00;;;;5405372;26;20276;-62
2024/04/15 00:58:22;;;;;;;0.40;0.40;;;14.20;81.80;16.10;100163.00;;;;5402663;26;20831;-63
2024/04/15 01:00:51;;;;;;;0.40;0.40;;;14.20;81.70;16.10;100167.00;;;;5405172;26;20234;-62
2024/04/15 01:03:17;;;;;;;0.40;0.40;;;14.20;81.80;16.10;100155.00;;;;5406494;26;20239;-61
2024/04/15 01:05:47;;;;;;;0.45;0.45;;;14.10;81.80;16.10;100162.00;;;;5407876;26;20276;-62
2024/04/15 01:08:13;;;;;;;0.40;0.40;;;14.10;81.90;16.10;100158.00;;;;5403010;26;20361;-62
2024/04/15 01:10:45;;;;;;;0.50;0.50;;;14.10;82.00;16.00;100154.00;;;;5402721;26;20233;-60
2024/04/15 01:13:12;;;;;;;0.38;0.38;;;14.10;82.40;16.00;100140.00;;;;5403582;26;20237;-62
2024/04/15 01:15:40;;;;;;;0.40;0.40;;;14.10;82.10;15.90;100142.00;;;;5407589;26;20237;-62
2024/04/15 01:18:06;;;;;;;0.40;0.40;;;14.10;82.30;15.90;100132.00;;;;5403146;26;20238;-62
2024/04/15 01:20:36;;;;;;;0.40;0.40;;;14.00;82.30;15.90;100132.00;;;;5407259;26;20242;-62
2024/04/15 01:23:07;;;;;;;0.40;0.40;;;14.00;82.40;15.90;100128.00;;;;5404488;26;20725;-60
2024/04/15 01:25:39;;;;;;;0.32;0.32;;;14.00;82.80;15.80;100121.00;;;;5402527;26;20561;-60
2024/04/15 01:28:06;;;;;;;0.40;0.40;;;14.00;83.00;15.80;100119.00;;;;5401273;26;20277;-62
2024/04/15 01:30:35;;;;;;;0.30;0.30;;;13.90;82.70;15.80;100114.00;;;;5407537;26;20917;-61
2024/04/15 01:33:01;;;;;;;0.40;0.40;;;13.90;82.80;15.80;100113.00;;;;5403689;26;20304;-63
2024/04/15 01:35:30;;;;;;;0.35;0.35;;;13.90;82.90;15.70;100121.00;;;;5406644;26;20320;-62
2024/04/15 01:37:56;;;;;;;0.35;0.35;;;13.90;83.00;15.60;100112.00;;;;5402504;26;20237;-61
2024/04/15 01:40:25;;;;;;;0.30;0.30;;;13.90;83.00;15.60;100109.00;;;;5407577;26;20279;-62
2024/04/15 01:42:54;;;;;;;0.40;0.40;;;13.80;83.00;15.60;100098.00;;;;5401663;26;20233;-61
2024/04/15 01:45:23;;;;;;;0.40;0.40;;;13.80;83.50;15.60;100096.00;;;;5405387;26;20272;-61
2024/04/15 01:47:49;;;;;;;0.50;0.50;;;13.80;83.30;15.50;100085.00;;;;5397082;26;20812;-62
2024/04/15 01:50:20;;;;;;;0.40;0.40;;;13.70;83.20;15.50;100083.00;;;;5405956;26;20276;-62
2024/04/15 01:52:46;;;;;;;0.40;0.40;;;13.70;83.40;15.50;100078.00;;;;5404997;26;20242;-62
2024/04/15 01:55:15;;;;;;;0.40;0.40;;;13.70;83.40;15.40;100081.00;;;;5405338;26;20749;-62
2024/04/15 01:57:42;;;;;;;0.38;0.38;;;13.60;83.40;15.40;100074.00;;;;5401107;26;20236;-61
2024/04/15 02:00:15;;;;;;;0.30;0.30;;;13.60;83.40;15.30;100073.00;;;;5403773;26;20245;-60
2024/04/15 02:02:41;;;;;;;0.40;0.40;;;13.60;84.00;15.30;100079.00;;;;5401562;26;20291;-62
2024/04/15 02:05:10;;;;;;;0.30;0.30;;;13.50;83.50;15.20;100066.00;;;;5403902;26;20279;-63
2024/04/15 02:07:36;;;;;;;0.40;0.40;;;13.50;83.60;15.20;100069.00;;;;5408062;26;20280;-61
2024/04/15 02:10:06;;;;;;;0.30;0.30;;;13.40;83.50;15.20;100068.00;;;;5405168;26;20233;-61
2024/04/15 02:12:32;;;;;;;0.40;0.40;;;13.40;83.70;15.10;100069.00;;;;5399702;26;20236;-62
2024/04/15 02:15:02;;;;;;;0.40;0.40;;;13.40;83.80;15.10;100065.00;;;;5405458;26;20292;-62
2024/04/15 02:17:31;;;;;;;0.40;0.40;;;13.30;83.80;15.00;100062.00;;;;5396837;26;20755;-62
2024/04/15 02:20:00;;;;;;;0.40;0.40;;;13.30;84.30;15.00;100052.00;;;;5402535;26;20241;-63
2024/04/15 02:22:26;;;;;;;0.40;0.40;;;13.30;84.10;14.90;100062.00;;;;5400686;26;20276;-61
2024/04/15 02:24:55;;;;;;;0.45;0.45;;;13.20;84.10;14.90;100064.00;;;;5404529;26;20700;-61
2024/04/15 02:27:21;;;;;;;0.40;0.40;;;13.20;84.30;14.90;100063.00;;;;5405385;26;20236;-62
2024/04/15 02:29:50;;;;;;;0.40;0.40;;;13.20;84.50;14.80;100066.00;;;;5402577;26;20275;-62
2024/04/15 02:32:18;;;;;;;0.30;0.30;;;13.10;84.60;14.80;100068.00;;;;5404581;26;20621;-63
2024/04/15 02:34:49;;;;;;;0.50;0.50;;;13.10;84.80;14.70;100056.00;;;;5403130;26;20333;-63
2024/04/15 02:37:15;;;;;;;0.40;0.40;;;13.10;85.30;14.70;100067.00;;;;5404150;26;20609;-62
2024/04/15 02:39:44;;;;;;;0.40;0.40;;;13.10;85.30;14.70;100062.00;;;;5405016;26;20273;-63
2024/04/15 02:42:10;;;;;;;0.40;0.40;;;13.10;85.50;14.60;100059.00;;;;5406481;26;20627;-62
2024/04/15 02:44:39;;;;;;;0.40;0.40;;;13.00;85.40;14.60;100048.00;;;;5394862;26;20241;-61
2024/04/15 02:47:06;;;;;;;0.50;0.50;;;13.00;85.70;14.60;100049.00;;;;5403840;26;20237;-61
2024/04/15 02:49:35;;;;;;;0.40;0.40;;;13.00;85.60;14.60;100054.00;;;;5402912;26;20614;-62
2024/04/15 02:52:05;;;;;;;0.40;0.40;;;13.00;85.60;14.60;100044.00;;;;5399650;26;20241;-61
2024/04/15 02:54:34;;;;;;;0.40;0.40;;;13.00;86.10;14.60;100037.00;;;;5405250;26;20241;-62
2024/04/15 02:57:00;;;;;;;0.40;0.40;;;13.00;85.80;14.60;100034.00;;;;5399861;26;20249;-61
2024/04/15 02:59:29;;;;;;;0.30;0.30;;;13.00;85.90;14.50;100028.00;;;;5403326;26;20280;-59
2024/04/15 03:01:55;;;;;;;0.40;0.40;;;12.90;85.80;14.50;100026.00;;;;5403088;26;20297;-61
2024/04/15 03:04:24;;;;;;;0.40;0.40;;;12.90;85.70;14.50;100031.00;;;;5403399;26;20587;-62
2024/04/15 03:06:52;;;;;;;0.40;0.40;;;12.90;85.80;14.40;100022.00;;;;5404952;26;20620;-61
2024/04/15 03:09:25;;;;;;;0.30;0.30;;;12.90;86.00;14.40;100020.00;;;;5403047;26;20233;-61
2024/04/15 03:11:51;;;;;;;0.40;0.40;;;12.80;86.10;14.40;100026.00;;;;5403494;26;20932;-57
2024/04/15 03:14:20;;;;;;;0.30;0.30;;;12.80;85.70;14.40;100021.00;;;;5401204;26;20230;-58
2024/04/15 03:16:46;;;;;;;0.40;0.40;;;12.80;85.70;14.30;100023.00;;;;5399603;26;20652;-58
2024/04/15 03:19:17;;;;;;;0.30;0.30;;;12.80;85.70;14.30;100019.00;;;;5399205;26;20240;-57
2024/04/15 03:21:43;;;;;;;0.40;0.40;;;12.70;85.60;14.30;100016.00;;;;5405071;26;20249;-57
2024/04/15 03:24:12;;;;;;;0.40;0.40;;;12.70;85.50;14.30;100020.00;;;;5404053;26;20648;-57
2024/04/15 03:26:40;;;;;;;0.40;0.40;;;12.70;85.60;14.20;100018.00;;;;5403954;26;20284;-57
2024/04/15 03:29:09;;;;;;;0.40;0.40;;;12.70;85.90;14.10;100004.00;;;;5404880;26;20236;-58
2024/04/15 03:31:35;;;;;;;0.40;0.40;;;12.60;85.60;14.10;100011.00;;;;5405859;26;20257;-57
2024/04/15 03:34:04;;;;;;;0.30;0.30;;;12.60;85.60;14.10;100021.00;;;;5401792;26;20352;-58
2024/04/15 03:36:30;;;;;;;0.40;0.40;;;12.50;85.60;14.00;100005.00;;;;5400264;26;20730;-58
2024/04/15 03:38:59;;;;;;;0.40;0.40;;;12.50;85.70;13.90;100005.00;;;;5405412;26;20287;-57
2024/04/15 03:41:28;;;;;;;0.40;0.40;;;12.50;85.70;13.90;99993.00;;;;5398962;26;20256;-59
2024/04/15 03:43:57;;;;;;;0.40;0.40;;;12.40;85.60;13.80;99996.00;;;;5399309;26;20615;-59
2024/04/15 03:46:25;;;;;;;0.40;0.40;;;12.40;85.90;13.80;99997.00;;;;5404291;26;20245;-58
2024/04/15 03:48:53;;;;;;;0.35;0.35;;;12.30;85.60;13.70;99991.00;;;;5399276;26;20557;-58
2024/04/15 03:51:21;;;;;;;0.30;0.30;;;12.30;85.60;13.70;99990.00;;;;5402497;26;20308;-58
2024/04/15 03:53:48;;;;;;;0.30;0.30;;;12.20;85.70;13.60;99984.00;;;;5397759;26;20313;-58
2024/04/15 03:56:16;;;;;;;0.30;0.30;;;12.20;85.70;13.60;99987.00;;;;5402867;26;20241;-58
2024/04/15 03:58:42;;;;;;;0.40;0.40;;;12.20;85.70;13.50;99982.00;;;;5404155;26;20338;-58
2024/04/15 04:01:14;;;;;;;0.40;0.40;;;12.10;85.70;13.50;99964.00;;;;5403922;26;20237;-58
2024/04/15 04:03:40;;;;;;;0.30;0.30;;;12.10;86.00;13.40;99968.00;;;;5400480;26;20239;-59
2024/04/15 04:06:09;;;;;;;0.40;0.40;;;12.00;85.70;13.40;99970.00;;;;5400619;26;20734;-59
2024/04/15 04:08:35;;;;;;;0.45;0.45;;;12.00;85.70;13.40;99970.00;;;;5403334;26;20725;-58
2024/04/15 04:11:13;;;;;;;0.50;0.50;;;11.90;85.70;13.30;99966.00;;;;5402780;26;20236;-58
2024/04/15 04:13:39;;;;;;;0.40;0.40;;;11.90;85.90;13.30;99964.00;;;;5399648;26;20758;-62
2024/04/15 04:16:16;;;;;;;0.40;0.40;;;11.90;85.60;13.20;99963.00;;;;5402731;26;20825;-62
2024/04/15 04:18:44;;;;;;;0.40;0.40;;;11.90;85.90;13.20;99961.00;;;;5399330;26;20753;-62
2024/04/15 04:21:14;;;;;;;0.63;0.63;;;11.80;85.80;13.20;99968.00;;;;5401993;26;20672;-61
2024/04/15 04:23:40;;;;;;;0.40;0.40;;;11.80;86.00;13.10;99958.00;;;;5400266;26;20284;-58
2024/04/15 04:26:09;;;;;;;0.40;0.40;;;11.70;85.90;13.10;99959.00;;;;5401076;26;20237;-58
2024/04/15 04:28:35;;;;;;;0.40;0.40;;;11.70;86.10;13.00;99962.00;;;;5401083;26;20640;-58
2024/04/15 04:31:05;;;;;;;0.40;0.40;;;11.70;86.20;13.00;99947.00;;;;5404514;26;20281;-58
2024/04/15 04:33:33;;;;;;;0.40;0.40;;;11.60;86.00;13.00;99945.00;;;;5400873;26;20233;-62
2024/04/15 04:36:03;;;;;;;0.40;0.40;;;11.60;86.40;13.00;99940.00;;;;5402365;26;20771;-62
2024/04/15 04:38:29;;;;;;;0.40;0.40;;;11.60;86.20;12.90;99939.00;;;;5401433;26;20360;-61
2024/04/15 04:41:01;;;;;;;0.40;0.40;;;11.50;86.20;12.90;99934.00;;;;5394498;26;20241;-61
2024/04/15 04:43:28;;;;;;;0.38;0.38;;;11.50;86.60;12.90;99934.00;;;;5399031;26;20237;-62
2024/04/15 04:45:57;;;;;;;0.40;0.40;;;11.50;86.40;12.90;99935.00;;;;5397549;26;20237;-61
2024/04/15 04:48:23;;;;;;;0.40;0.40;;;11.50;86.50;12.80;99942.00;;;;5402587;26;20272;-61
2024/04/15 04:50:54;;;;;;;0.40;0.40;;;11.50;86.50;12.80;99935.00;;;;5404471;26;20234;-62
2024/04/15 04:53:20;;;;;;;0.40;0.40;;;11.40;86.90;12.80;99933.00;;;;5399617;26;20241;-62
2024/04/15 04:55:49;;;;;;;0.40;0.40;;;11.40;86.50;12.80;99931.00;;;;5401293;26;20578;-61
2024/04/15 04:58:15;;;;;;;0.50;0.50;;;11.40;86.50;12.80;99924.00;;;;5398139;26;20293;-61
2024/04/15 05:00:44;;;;;;;0.40;0.40;;;11.40;86.60;12.80;99934.00;;;;5399977;26;20235;-62
2024/04/15 05:03:13;;;;;;;0.40;0.40;;;11.30;86.70;12.70;99923.00;;;;5399188;26;20652;-61
2024/04/15 05:05:42;;;;;;;0.40;0.40;;;11.30;86.90;12.70;99923.00;;;;5400903;26;20764;-62
2024/04/15 05:08:12;;;;;;;0.40;0.40;;;11.30;86.90;12.70;99915.00;;;;5400396;26;20355;-61
2024/04/15 05:10:41;;;;;;;0.40;0.40;;;11.30;87.10;12.70;99910.00;;;;5398502;26;20637;-62
2024/04/15 05:13:07;;;;;;;0.40;0.40;;;11.30;87.00;12.60;99904.00;;;;5401014;26;20252;-63
2024/04/15 05:15:36;;;;;;;0.40;0.40;;;11.20;87.00;12.60;99893.00;;;;5403418;26;20268;-63
2024/04/15 05:18:02;;;;;;;0.32;0.32;;;11.20;87.20;12.60;99912.00;;;;5407628;26;20236;-62
2024/04/15 05:20:31;;;;;;;0.40;0.40;;;11.20;87.40;12.60;99901.00;;;;5406924;26;20229;-61
2024/04/15 05:22:59;;;;;;;0.40;0.40;;;11.20;87.40;12.60;99892.00;;;;5400757;26;20702;-63
2024/04/15 05:25:30;;;;;;;0.40;0.40;;;11.20;87.30;12.60;99900.00;;;;5408555;26;20287;-61
2024/04/15 05:27:57;;;;;;;0.40;0.40;;;11.20;87.80;12.60;99897.00;;;;5405264;26;20245;-61
2024/04/15 05:30:26;;;;;;;0.40;0.40;;;11.20;87.60;12.60;99894.00;;;;5406032;26;20284;-62
2024/04/15 05:32:52;;;;;;;0.40;0.40;;;11.10;87.50;12.60;99898.00;;;;5401018;26;21029;-62
2024/04/15 05:35:21;;;;;;;0.40;0.40;;;11.10;87.60;12.60;99884.00;;;;5403343;26;20241;-62
2024/04/15 05:37:47;;;;;;;0.40;0.40;;;11.20;87.80;12.60;99879.00;;;;5394217;26;20238;-64
2024/04/15 05:40:16;;;;;;;0.40;0.40;;;11.20;87.60;12.60;99887.00;;;;5403090;26;20766;-62
2024/04/15 05:42:44;;;;;;;0.40;0.40;;;11.20;87.50;12.60;99879.00;;;;5404374;26;20233;-59
2024/04/15 05:45:13;;;;;;;0.40;0.40;;;11.20;87.90;12.60;99879.00;;;;5402856;26;20292;-58
2024/04/15 05:47:39;;;;;;;0.40;0.40;;;11.20;87.60;12.70;99886.00;;;;5400191;26;20722;-59
2024/04/15 05:50:08;;;;;;;0.40;0.40;;;11.20;87.60;12.70;99881.00;;;;5406531;26;20241;-59
2024/04/15 05:52:34;;;;;;;0.40;0.40;;;11.20;87.70;12.70;99874.00;;;;5402295;26;20291;-58
2024/04/15 05:55:03;;;;;;;0.40;0.40;;;11.20;88.10;12.70;99866.00;;;;5406843;26;20859;-58
2024/04/15 05:57:29;;;;;;;0.38;0.38;;;11.30;88.10;12.70;99881.00;;;;5403675;26;20521;-59
2024/04/15 06:00:01;;;;;;;0.30;0.30;;;11.30;88.00;12.80;99878.00;;;;5402888;26;20237;-58
2024/04/15 06:02:27;;;;;;;0.40;0.40;;;11.30;88.40;12.80;99877.00;;;;5395086;26;20237;-59
2024/04/15 06:04:56;;;;;;;0.40;0.40;;;11.30;88.40;12.80;99868.00;;;;5401246;26;20245;-59
2024/04/15 06:07:22;;;;;;;0.40;0.40;;;11.40;88.40;12.90;99864.00;;;;5393409;26;20296;-59
2024/04/15 06:09:50;;;;;;;0.30;0.30;;;11.40;88.50;12.90;99867.00;;;;5395120;26;20503;-58
2024/04/15 06:12:20;;;;;;;0.40;0.40;;;11.50;89.40;13.00;99857.00;;;;5389388;26;20246;-57
2024/04/15 06:14:48;;;;;;;0.47;0.47;;;11.50;88.80;13.00;99851.00;;;;5405034;26;20614;-59
2024/04/15 06:17:18;;;;;;;0.40;0.40;;;11.50;88.40;13.00;99838.00;;;;5399681;26;20237;-59
2024/04/15 06:19:47;;;;;;;0.30;0.30;;;11.50;88.70;13.00;99839.00;;;;5404754;26;20252;-59
2024/04/15 06:22:13;;;;;;;0.40;0.40;;;11.60;88.70;13.10;99844.00;;;;5401246;26;20745;-58
2024/04/15 06:24:42;;;;;;;0.40;0.40;;;11.60;88.70;13.10;99834.00;;;;5405327;26;20275;-59
2024/04/15 06:27:08;;;;;;;0.38;0.38;;;11.60;88.70;13.10;99828.00;;;;5396278;26;20234;-59
2024/04/15 06:29:38;;;;;;;0.40;0.40;;;11.60;88.60;13.10;99829.00;;;;5403115;26;20271;-58
2024/04/15 06:32:05;;;;;;;0.30;0.30;;;11.70;88.70;13.20;99837.00;;;;5397631;26;20330;-63
2024/04/15 06:34:36;;;;;;;0.40;0.40;;;11.70;88.70;13.20;99826.00;;;;5400681;26;20237;-62
2024/04/15 06:37:03;;;;;;;0.40;0.40;;;11.70;88.70;13.20;99823.00;;;;5396000;26;20276;-63
2024/04/15 06:39:33;;;;;;;0.43;0.43;;;11.80;88.70;13.20;99822.00;;;;5403212;26;20686;-61
2024/04/15 06:42:00;;;;;;;0.40;0.40;;;11.70;88.50;13.20;99822.00;;;;5398789;26;20236;-61
2024/04/15 06:44:31;;;;;;;0.47;0.47;;;11.80;88.50;13.20;99812.00;;;;5402181;26;20985;-62
2024/04/15 06:46:57;;;;;;;0.40;0.40;;;11.80;88.50;13.20;99822.00;;;;5398360;26;20296;-63
2024/04/15 06:49:26;;;;;;;0.40;0.40;;;11.80;88.60;13.20;99817.00;;;;5404794;26;20599;-61
2024/04/15 06:51:55;;;;;;;0.40;0.40;;;11.80;88.80;13.20;99808.00;;;;5400027;26;20632;-62
2024/04/15 06:54:23;;;;;;;0.40;0.40;;;11.80;89.10;13.30;99806.00;;;;5401893;26;20241;-62
2024/04/15 06:56:49;;;;;;;0.38;0.38;;;11.80;88.80;13.30;99820.00;;;;5397475;26;20548;-61
2024/04/15 06:59:18;;;;;;;0.32;0.32;;;11.80;88.80;13.30;99801.00;;;;5403476;26;20739;-62
2024/04/15 07:01:44;;;;;;;0.40;0.40;;;11.90;88.90;13.40;99795.00;;;;5404339;26;20624;-62
2024/04/15 07:04:13;;;;;;;0.40;0.40;;;11.90;88.80;13.40;99790.00;;;;5401038;26;20276;-62
2024/04/15 07:06:39;;;;;;;0.40;0.40;;;11.90;88.90;13.40;99795.00;;;;5401266;26;20233;-62
2024/04/15 07:09:10;;;;;;;0.40;0.40;;;11.90;88.80;13.40;99792.00;;;;5404966;26;20229;-63
2024/04/15 07:11:36;;;;;;;0.30;0.30;;;12.00;89.00;13.40;99788.00;;;;5403597;26;20229;-62
2024/04/15 07:14:06;;;;;;;0.40;0.40;;;12.00;89.90;13.40;99798.00;;;;5402127;26;20238;-62
2024/04/15 07:16:33;;;;;;;0.30;0.30;;;12.00;89.00;13.50;99802.00;;;;5402217;26;20267;-61
2024/04/15 07:19:01;;;;;;;0.30;0.30;;;12.00;89.00;13.50;99797.00;;;;5401996;26;20670;-62
2024/04/15 07:21:27;;;;;;;0.40;0.40;;;12.00;89.00;13.50;99803.00;;;;5398138;26;20225;-58
2024/04/15 07:23:56;;;;;;;0.40;0.40;;;12.00;88.90;13.50;99808.00;;;;5402531;26;20784;-58
2024/04/15 07:26:25;;;;;;;0.40;0.40;;;12.10;89.00;13.50;99805.00;;;;5399722;26;20237;-58
2024/04/15 07:28:55;;;;;;;0.40;0.40;;;12.10;89.60;13.50;99806.00;;;;5397838;26;20233;-58
2024/04/15 07:31:22;;;;;;;0.40;0.40;;;12.10;89.20;13.60;99790.00;;;;5397893;26;20330;-58
2024/04/15 07:33:51;;;;;;;0.32;0.32;;;12.10;88.90;13.60;99786.00;;;;5402204;26;20280;-58
2024/04/15 07:36:17;;;;;;;0.40;0.40;;;12.10;89.00;13.60;99786.00;;;;5397619;26;20675;-58
2024/04/15 07:38:46;;;;;;;0.40;0.40;;;12.10;89.30;13.70;99788.00;;;;5399533;26;20237;-59
2024/04/15 07:41:13;;;;;;;0.40;0.40;;;12.20;90.00;13.80;99780.00;;;;5397389;26;20283;-60
2024/04/15 07:43:44;;;;;;;0.40;0.40;;;12.20;90.00;13.90;99767.00;;;;5401482;26;20225;-62
2024/04/15 07:46:10;;;;;;;0.40;0.40;;;12.30;90.20;13.90;99770.00;;;;5399523;26;20296;-62
2024/04/15 07:48:39;;;;;;;0.40;0.40;;;12.40;90.20;14.00;99757.00;;;;5400352;26;20245;-62
2024/04/15 07:51:05;;;;;;;0.30;0.30;;;12.50;90.20;14.10;99758.00;;;;5402237;26;20229;-60
2024/04/15 07:53:34;;;;;;;0.30;0.30;;;12.50;90.00;14.20;99755.00;;;;5400986;26;20355;-62
2024/04/15 07:56:00;;;;;;;0.40;0.40;;;12.60;90.10;14.30;99747.00;;;;5404452;26;20715;-62
2024/04/15 07:58:30;;;;;;;0.40;0.40;;;12.70;90.10;14.30;99746.00;;;;5401450;26;20237;-62
2024/04/15 08:00:59;;;;;;;0.30;0.30;;;12.80;90.10;14.40;99742.00;;;;5403637;26;20234;-62
2024/04/15 08:03:28;;;;;;;0.40;0.40;;;12.80;90.00;14.40;99731.00;;;;5399790;26;21013;-62
2024/04/15 08:05:54;;;;;;;0.43;0.43;;;12.90;89.90;14.50;99729.00;;;;5402266;26;20234;-63
2024/04/15 08:08:23;;;;;;;0.45;0.45;;;13.00;90.00;14.60;99742.00;;;;5398047;26;20673;-62
2024/04/15 08:10:49;;;;;;;0.30;0.30;;;13.00;89.90;14.60;99751.00;;;;5398482;26;20259;-61
2024/04/15 08:13:18;;;;;;;0.40;0.40;;;13.10;89.50;14.70;99746.00;;;;5397346;26;20594;-60
2024/04/15 08:15:45;;;;;;;0.40;0.40;;;13.10;89.50;14.70;99744.00;;;;5402534;26;20300;-62
2024/04/15 08:18:16;;;;;;;0.32;0.32;;;13.20;89.40;14.80;99739.00;;;;5398868;26;20229;-62
2024/04/15 08:20:53;;;;;;;0.40;0.40;;;13.20;89.50;14.90;99718.00;;;;5404796;26;20737;-62
2024/04/15 08:23:22;;;;;;;0.30;0.30;;;13.30;90.10;15.00;99728.00;;;;5400231;26;20229;-60
2024/04/15 08:25:52;;;;;;;0.40;0.40;;;13.40;89.90;15.10;99724.00;;;;5404247;26;20353;-60
2024/04/15 08:28:21;;;;;;;0.32;0.32;;;13.50;89.70;15.20;99696.00;;;;5399896;26;20279;-60
2024/04/15 08:30:47;;;;;;;0.30;0.30;;;13.60;89.90;15.30;99704.00;;;;5402005;26;20771;-60
2024/04/15 08:33:19;;;;;;;0.30;0.30;;;13.70;90.10;15.50;99696.00;;;;5396041;26;20272;-61
2024/04/15 08:35:45;;;;;;;0.30;0.30;;;13.80;90.00;15.50;99694.00;;;;5401847;26;20315;-60
2024/04/15 08:38:14;;;;;;;0.40;0.40;;;13.90;89.60;15.60;99690.00;;;;5399410;26;20729;-61
2024/04/15 08:40:51;;;;;;;0.40;0.40;;;14.00;89.20;15.60;99680.00;;;;5402419;26;20252;-61
2024/04/15 08:43:24;;;;;;;0.40;0.40;;;14.10;88.70;15.70;99692.00;;;;5398108;26;20277;-62
2024/04/15 08:45:54;;;;;;;0.30;0.30;;;14.10;88.10;15.70;99670.00;;;;5393597;26;20318;-57
2024/04/15 08:48:27;;;;;;;0.40;0.40;;;14.10;87.90;15.60;99686.00;;;;5400353;26;20264;-57
2024/04/15 08:50:55;;;;;;;0.30;0.30;;;14.20;87.70;15.30;99681.00;;;;5404360;26;20557;-57
2024/04/15 08:53:24;;;;;;;0.30;0.30;;;14.20;87.60;15.70;99677.00;;;;5402408;26;20229;-60
2024/04/15 08:55:50;;;;;;;0.30;0.30;;;14.20;87.60;15.80;99676.00;;;;5403456;26;20593;-61
2024/04/15 08:58:20;;;;;;;0.30;0.30;;;14.20;87.50;15.80;99673.00;;;;5403247;26;20233;-60
2024/04/15 09:00:48;;;;;;;0.30;0.30;;;14.20;87.10;15.80;99671.00;;;;5404469;26;20967;-61
2024/04/15 09:03:18;;;;;;;0.30;0.30;;;14.30;87.10;15.80;99660.00;;;;5402313;26;20786;-57
2024/04/15 09:05:47;;;;;;;0.32;0.32;;;14.30;87.20;15.90;99668.00;;;;5407948;26;20264;-58
2024/04/15 09:08:16;;;;;;;0.30;0.30;;;14.30;87.10;15.90;99662.00;;;;5402210;26;20238;-58
2024/04/15 09:10:42;;;;;;;0.30;0.30;;;14.40;87.00;15.90;99660.00;;;;5406663;26;20745;-58
2024/04/15 09:13:11;;;;;;;0.30;0.30;;;14.40;86.80;15.90;99647.00;;;;5403664;26;20597;-58
2024/04/15 09:15:39;;;;;;;0.40;0.40;;;14.40;86.80;16.00;99643.00;;;;5404871;26;20338;-58
2024/04/15 09:18:11;;;;;;;0.30;0.30;;;14.40;86.90;16.00;99626.00;;;;5401442;26;20655;-58
2024/04/15 09:20:38;;;;;;;0.40;0.40;;;14.40;86.70;16.10;99631.00;;;;5405027;26;20233;-59
2024/04/15 09:23:11;;;;;;;0.40;0.40;;;14.50;86.60;16.10;99616.00;;;;5403077;26;20271;-58
2024/04/15 09:25:38;;;;;;;0.30;0.30;;;14.50;86.50;16.20;99616.00;;;;5402655;26;20230;-59
2024/04/15 09:28:09;;;;;;;0.40;0.40;;;14.60;86.60;16.20;99603.00;;;;5401523;26;20483;-59
2024/04/15 09:30:36;;;;;;;0.40;0.40;;;14.60;86.10;16.20;99603.00;;;;5406507;26;20272;-58
2024/04/15 09:33:05;;;;;;;0.30;0.30;;;14.70;86.40;16.30;99605.00;;;;5402544;26;20766;-59
2024/04/15 09:35:31;;;;;;;0.40;0.40;;;14.70;86.70;16.40;99586.00;;;;5402756;26;20284;-58
2024/04/15 09:38:02;;;;;;;0.30;0.30;;;14.80;86.10;16.40;99575.00;;;;5402214;26;20241;-58
2024/04/15 09:40:36;;;;;;;0.40;0.40;;;14.80;85.90;16.40;99576.00;;;;5401228;26;20280;-59
2024/04/15 09:43:06;;;;;;;0.38;0.38;;;14.90;85.50;16.50;99569.00;;;;5401946;26;20232;-58
2024/04/15 09:45:32;;;;;;;0.40;0.40;;;14.90;85.80;16.50;99562.00;;;;5402834;26;20237;-58
2024/04/15 09:48:02;;;;;;;0.32;0.32;;;15.00;85.70;16.60;99554.00;;;;5403239;26;20280;-58
2024/04/15 09:50:29;;;;;;;0.30;0.30;;;15.00;85.40;16.60;99555.00;;;;5403820;26;20867;-58
2024/04/15 09:53:00;;;;;;;0.30;0.30;;;15.00;85.60;16.60;99539.00;;;;5405991;26;20233;-58
2024/04/15 09:55:34;;;;;;;0.32;0.32;;;15.00;85.30;16.70;99541.00;;;;5401063;26;20272;-58
2024/04/15 09:58:06;;;;;;;0.38;0.38;;;15.10;85.10;16.80;99536.00;;;;5404673;26;20233;-59
2024/04/15 10:00:38;;;;;;;0.40;0.40;;;15.20;85.50;16.80;99533.00;;;;5401109;26;20912;-58
2024/04/15 10:03:16;;;;;;;0.32;0.32;;;15.20;85.20;16.90;99538.00;;;;5403874;26;21144;-61
2024/04/15 10:05:45;;;;;;;0.40;0.40;;;15.30;85.00;17.00;99528.00;;;;5404009;26;20245;-62
2024/04/15 10:08:16;;;;;;;0.40;0.40;;;15.30;84.40;17.00;99534.00;;;;5402440;26;20317;-62
2024/04/15 10:10:46;;;;;;;0.40;0.40;;;15.40;84.70;17.00;99514.00;;;;5403073;26;20583;-62
2024/04/15 10:13:16;;;;;;;0.40;0.40;;;15.40;84.30;17.10;99504.00;;;;5402725;26;20306;-61
2024/04/15 10:15:42;;;;;;;0.50;0.50;;;15.50;84.10;17.20;99503.00;;;;5404084;26;20284;-61
2024/04/15 10:18:22;;;;;;;0.40;0.40;;;15.60;84.70;17.30;99487.00;;;;5393358;26;20957;-62
2024/04/15 10:20:48;;;;;;;0.30;0.30;;;15.60;85.30;17.50;99495.00;;;;5406294;26;20304;-61
2024/04/15 10:23:21;;;;;;;0.30;0.30;;;15.80;85.50;17.60;99472.00;;;;5405330;26;20284;-61
2024/04/15 10:25:51;;;;;;;0.30;0.30;;;15.90;84.80;17.80;99468.00;;;;5402269;26;20241;-60
2024/04/15 10:28:20;;;;;;;0.40;0.40;;;16.10;84.80;18.00;99461.00;;;;5405064;26;20237;-64
2024/04/15 10:30:47;;;;;;;0.30;0.30;;;16.30;85.20;18.20;99460.00;;;;5401510;26;20598;-61
2024/04/15 10:33:19;;;;;;;0.30;0.30;;;16.40;84.60;18.30;99442.00;;;;5399159;26;20808;-61
2024/04/15 10:35:51;;;;;;;0.40;0.40;;;16.60;84.00;18.40;99445.00;;;;5401147;26;20305;-63
2024/04/15 10:38:20;;;;;;;0.30;0.30;;;16.70;82.30;18.50;99432.00;;;;5401861;26;20264;-62
2024/04/15 10:40:49;;;;;;;0.40;0.40;;;16.80;83.60;18.60;99419.00;;;;5399185;26;20238;-62
2024/04/15 10:43:21;;;;;;;0.30;0.30;;;16.90;82.90;18.80;99422.00;;;;5403730;26;21084;-62
2024/04/15 10:45:48;;;;;;;0.40;0.40;;;17.10;83.00;18.80;99412.00;;;;5400969;26;20249;-60
2024/04/15 10:48:17;;;;;;;0.35;0.35;;;17.10;82.00;18.90;99422.00;;;;5398365;26;20759;-61
2024/04/15 10:50:45;;;;;;;0.40;0.40;;;17.20;81.80;18.90;99412.00;;;;5396396;26;20832;-61
2024/04/15 10:53:15;;;;;;;0.30;0.30;;;17.30;80.90;18.90;99412.00;;;;5398757;26;20268;-62
2024/04/15 10:55:42;;;;;;;0.35;0.35;;;17.40;81.70;19.00;99388.00;;;;5398103;26;20241;-60
2024/04/15 10:58:16;;;;;;;0.32;0.32;;;17.40;81.60;19.10;99399.00;;;;5401270;26;20317;-60